sensor_id;sensor_type;location;lat;lon;timestamp;pressure;altitude;pressure_sealevel;temperature;humidity
60240;BME280;46102;39.012;-7.064;2023-09-18T00:01:12;98459.78;;;17.40;100.00
60240;BME280;46102;39.012;-7.064;2023-09-18T00:03:12;98453.66;;;17.50;100.00
60240;BME280;46102;39.012;-7.064;2023-09-18T00:05:13;98456.66;;;17.41;100.00
60240;BME280;46102;39.012;-7.064;2023-09-18T00:07:16;98460.53;;;17.37;100.00
60240;BME280;46102;39.012;-7.064;2023-09-18T00:09:17;98460.16;;;17.38;100.00
60240;BME280;46102;39.012;-7.064;2023-09-18T00:11:17;98463.66;;;17.35;100.00
60240;BME280;46102;39.012;-7.064;2023-09-18T00:13:18;98461.31;;;17.37;100.00
60240;BME280;46102;39.012;-7.064;2023-09-18T00:15:19;98459.13;;;17.46;100.00
60240;BME280;46102;39.012;-7.064;2023-09-18T00:17:20;98461.97;;;17.50;100.00
60240;BME280;46102;39.012;-7.064;2023-09-18T00:19:21;98465.03;;;17.45;100.00
60240;BME280;46102;39.012;-7.064;2023-09-18T00:21:24;98458.19;;;17.39;100.00
60240;BME280;46102;39.012;-7.064;2023-09-18T00:23:27;98464.09;;;17.37;100.00
60240;BME280;46102;39.012;-7.064;2023-09-18T00:25:27;98466.38;;;17.32;100.00
60240;BME280;46102;39.012;-7.064;2023-09-18T00:27:29;98465.31;;;17.40;100.00
60240;BME280;46102;39.012;-7.064;2023-09-18T00:29:30;98463.34;;;17.40;100.00
60240;BME280;46102;39.012;-7.064;2023-09-18T00:31:30;98468.97;;;17.44;100.00
60240;BME280;46102;39.012;-7.064;2023-09-18T00:33:31;98467.09;;;17.48;100.00
60240;BME280;46102;39.012;-7.064;2023-09-18T00:35:32;98470.75;;;17.52;100.00
60240;BME280;46102;39.012;-7.064;2023-09-18T00:37:33;98462.69;;;17.47;100.00
60240;BME280;46102;39.012;-7.064;2023-09-18T00:39:34;98469.78;;;17.44;100.00
60240;BME280;46102;39.012;-7.064;2023-09-18T00:41:36;98474.09;;;17.42;100.00
60240;BME280;46102;39.012;-7.064;2023-09-18T00:43:36;98467.75;;;17.41;100.00
60240;BME280;46102;39.012;-7.064;2023-09-18T00:45:40;98474.09;;;17.42;100.00
60240;BME280;46102;39.012;-7.064;2023-09-18T00:47:42;98468.19;;;17.43;100.00
60240;BME280;46102;39.012;-7.064;2023-09-18T00:49:47;98476.41;;;17.40;100.00
60240;BME280;46102;39.012;-7.064;2023-09-18T00:51:50;98472.69;;;17.32;100.00
60240;BME280;46102;39.012;-7.064;2023-09-18T00:53:51;98474.81;;;17.39;100.00
60240;BME280;46102;39.012;-7.064;2023-09-18T00:55:54;98468.63;;;17.45;100.00
60240;BME280;46102;39.012;-7.064;2023-09-18T00:57:56;98472.63;;;17.48;100.00
60240;BME280;46102;39.012;-7.064;2023-09-18T00:59:57;98465.69;;;17.58;100.00
60240;BME280;46102;39.012;-7.064;2023-09-18T01:01:59;98475.91;;;17.54;100.00
60240;BME280;46102;39.012;-7.064;2023-09-18T01:04:00;98478.69;;;17.54;100.00
60240;BME280;46102;39.012;-7.064;2023-09-18T01:06:01;98477.16;;;17.56;100.00
60240;BME280;46102;39.012;-7.064;2023-09-18T01:08:04;98485.69;;;17.67;100.00
60240;BME280;46102;39.012;-7.064;2023-09-18T01:10:06;98479.63;;;17.61;100.00
60240;BME280;46102;39.012;-7.064;2023-09-18T01:12:19;98482.53;;;17.49;100.00
60240;BME280;46102;39.012;-7.064;2023-09-18T01:14:31;98479.72;;;17.45;100.00
60240;BME280;46102;39.012;-7.064;2023-09-18T01:16:50;98480.81;;;17.41;100.00
60240;BME280;46102;39.012;-7.064;2023-09-18T01:18:51;98479.34;;;17.47;100.00
60240;BME280;46102;39.012;-7.064;2023-09-18T01:20:52;98480.22;;;17.51;100.00
60240;BME280;46102;39.012;-7.064;2023-09-18T01:22:53;98475.75;;;17.46;100.00
60240;BME280;46102;39.012;-7.064;2023-09-18T01:24:54;98474.88;;;17.62;100.00
60240;BME280;46102;39.012;-7.064;2023-09-18T01:26:55;98478.19;;;17.67;100.00
60240;BME280;46102;39.012;-7.064;2023-09-18T01:28:56;98474.22;;;17.68;100.00
60240;BME280;46102;39.012;-7.064;2023-09-18T01:30:57;98465.59;;;17.74;100.00
60240;BME280;46102;39.012;-7.064;2023-09-18T01:32:59;98476.78;;;17.77;100.00
60240;BME280;46102;39.012;-7.064;2023-09-18T01:35:01;98466.56;;;17.62;100.00
60240;BME280;46102;39.012;-7.064;2023-09-18T01:37:05;98459.63;;;17.72;100.00
60240;BME280;46102;39.012;-7.064;2023-09-18T01:39:08;98459.69;;;17.75;100.00
60240;BME280;46102;39.012;-7.064;2023-09-18T01:41:10;98459.38;;;17.80;100.00
60240;BME280;46102;39.012;-7.064;2023-09-18T01:43:12;98460.94;;;17.78;100.00
60240;BME280;46102;39.012;-7.064;2023-09-18T01:45:13;98461.72;;;17.78;100.00
60240;BME280;46102;39.012;-7.064;2023-09-18T01:47:16;98453.78;;;17.77;100.00
60240;BME280;46102;39.012;-7.064;2023-09-18T01:49:31;98451.72;;;17.74;100.00
60240;BME280;46102;39.012;-7.064;2023-09-18T01:51:32;98450.84;;;17.69;100.00
60240;BME280;46102;39.012;-7.064;2023-09-18T01:53:33;98460.94;;;17.58;100.00
60240;BME280;46102;39.012;-7.064;2023-09-18T01:55:33;98459.34;;;17.57;100.00
60240;BME280;46102;39.012;-7.064;2023-09-18T01:57:34;98465.34;;;17.59;100.00
60240;BME280;46102;39.012;-7.064;2023-09-18T01:59:35;98458.16;;;17.58;100.00
60240;BME280;46102;39.012;-7.064;2023-09-18T02:01:36;98460.94;;;17.58;100.00
60240;BME280;46102;39.012;-7.064;2023-09-18T02:03:38;98451.94;;;17.65;100.00
60240;BME280;46102;39.012;-7.064;2023-09-18T02:05:42;98460.00;;;17.51;100.00
60240;BME280;46102;39.012;-7.064;2023-09-18T02:07:43;98456.13;;;17.55;100.00
60240;BME280;46102;39.012;-7.064;2023-09-18T02:09:43;98460.53;;;17.56;100.00
60240;BME280;46102;39.012;-7.064;2023-09-18T02:11:46;98452.91;;;17.53;100.00
60240;BME280;46102;39.012;-7.064;2023-09-18T02:13:48;98448.38;;;17.45;100.00
60240;BME280;46102;39.012;-7.064;2023-09-18T02:15:51;98446.00;;;17.43;100.00
60240;BME280;46102;39.012;-7.064;2023-09-18T02:17:52;98440.38;;;17.40;100.00
60240;BME280;46102;39.012;-7.064;2023-09-18T02:19:53;98441.47;;;17.35;100.00
60240;BME280;46102;39.012;-7.064;2023-09-18T02:21:57;98447.00;;;17.35;100.00
60240;BME280;46102;39.012;-7.064;2023-09-18T02:23:58;98445.88;;;17.36;100.00
60240;BME280;46102;39.012;-7.064;2023-09-18T02:25:59;98441.25;;;17.24;100.00
60240;BME280;46102;39.012;-7.064;2023-09-18T02:28:00;98442.34;;;17.20;100.00
60240;BME280;46102;39.012;-7.064;2023-09-18T02:30:01;98436.88;;;17.23;100.00
60240;BME280;46102;39.012;-7.064;2023-09-18T02:32:01;98444.16;;;17.12;100.00
60240;BME280;46102;39.012;-7.064;2023-09-18T02:34:02;98440.50;;;17.08;100.00
60240;BME280;46102;39.012;-7.064;2023-09-18T02:36:03;98439.41;;;17.13;100.00
60240;BME280;46102;39.012;-7.064;2023-09-18T02:38:04;98440.22;;;17.13;100.00
60240;BME280;46102;39.012;-7.064;2023-09-18T02:40:05;98438.91;;;17.07;100.00
60240;BME280;46102;39.012;-7.064;2023-09-18T02:42:08;98443.72;;;17.10;100.00
60240;BME280;46102;39.012;-7.064;2023-09-18T02:44:09;98451.31;;;17.13;100.00
60240;BME280;46102;39.012;-7.064;2023-09-18T02:46:10;98442.19;;;17.13;100.00
60240;BME280;46102;39.012;-7.064;2023-09-18T02:48:10;98448.91;;;17.12;100.00
60240;BME280;46102;39.012;-7.064;2023-09-18T02:50:11;98444.06;;;17.09;100.00
60240;BME280;46102;39.012;-7.064;2023-09-18T02:52:12;98441.69;;;17.07;100.00
60240;BME280;46102;39.012;-7.064;2023-09-18T02:54:13;98444.91;;;17.09;100.00
60240;BME280;46102;39.012;-7.064;2023-09-18T02:56:14;98447.94;;;17.04;100.00
60240;BME280;46102;39.012;-7.064;2023-09-18T02:58:15;98443.72;;;17.10;100.00
60240;BME280;46102;39.012;-7.064;2023-09-18T03:00:17;98438.53;;;17.09;100.00
60240;BME280;46102;39.012;-7.064;2023-09-18T03:02:17;98439.91;;;16.99;100.00
60240;BME280;46102;39.012;-7.064;2023-09-18T03:04:18;98431.16;;;16.97;100.00
60240;BME280;46102;39.012;-7.064;2023-09-18T03:06:20;98435.03;;;16.92;100.00
60240;BME280;46102;39.012;-7.064;2023-09-18T03:08:21;98442.88;;;16.90;100.00
60240;BME280;46102;39.012;-7.064;2023-09-18T03:10:22;98436.63;;;16.93;100.00
60240;BME280;46102;39.012;-7.064;2023-09-18T03:12:22;98444.22;;;16.96;100.00
60240;BME280;46102;39.012;-7.064;2023-09-18T03:14:24;98443.25;;;16.89;100.00
60240;BME280;46102;39.012;-7.064;2023-09-18T03:16:24;98445.59;;;16.87;100.00
60240;BME280;46102;39.012;-7.064;2023-09-18T03:18:25;98447.63;;;16.90;100.00
60240;BME280;46102;39.012;-7.064;2023-09-18T03:20:27;98457.53;;;16.91;100.00
60240;BME280;46102;39.012;-7.064;2023-09-18T03:22:29;98454.75;;;16.91;100.00
60240;BME280;46102;39.012;-7.064;2023-09-18T03:24:30;98465.66;;;16.99;100.00
60240;BME280;46102;39.012;-7.064;2023-09-18T03:26:31;98461.63;;;16.97;100.00
60240;BME280;46102;39.012;-7.064;2023-09-18T03:28:31;98460.41;;;16.94;100.00
60240;BME280;46102;39.012;-7.064;2023-09-18T03:30:33;98457.44;;;17.03;100.00
60240;BME280;46102;39.012;-7.064;2023-09-18T03:32:35;98454.56;;;16.99;100.00
60240;BME280;46102;39.012;-7.064;2023-09-18T03:34:36;98466.09;;;17.01;100.00
60240;BME280;46102;39.012;-7.064;2023-09-18T03:36:37;98461.00;;;17.03;100.00
60240;BME280;46102;39.012;-7.064;2023-09-18T03:38:39;98456.34;;;17.08;100.00
60240;BME280;46102;39.012;-7.064;2023-09-18T03:40:41;98457.94;;;17.09;100.00
60240;BME280;46102;39.012;-7.064;2023-09-18T03:42:42;98457.88;;;17.05;100.00
60240;BME280;46102;39.012;-7.064;2023-09-18T03:44:43;98457.28;;;17.15;100.00
60240;BME280;46102;39.012;-7.064;2023-09-18T03:46:44;98463.81;;;17.23;100.00
60240;BME280;46102;39.012;-7.064;2023-09-18T03:48:45;98464.59;;;17.23;100.00
60240;BME280;46102;39.012;-7.064;2023-09-18T03:50:47;98466.63;;;17.26;100.00
60240;BME280;46102;39.012;-7.064;2023-09-18T03:52:48;98460.66;;;17.24;100.00
60240;BME280;46102;39.012;-7.064;2023-09-18T03:54:49;98458.69;;;17.25;100.00
60240;BME280;46102;39.012;-7.064;2023-09-18T03:56:50;98461.09;;;17.26;100.00
60240;BME280;46102;39.012;-7.064;2023-09-18T03:58:51;98463.06;;;17.26;100.00
60240;BME280;46102;39.012;-7.064;2023-09-18T04:00:52;98463.06;;;17.26;100.00
60240;BME280;46102;39.012;-7.064;2023-09-18T04:02:53;98462.31;;;17.29;100.00
60240;BME280;46102;39.012;-7.064;2023-09-18T04:04:54;98468.41;;;17.35;100.00
60240;BME280;46102;39.012;-7.064;2023-09-18T04:06:55;98468.03;;;17.36;100.00
60240;BME280;46102;39.012;-7.064;2023-09-18T04:08:56;98468.09;;;17.40;100.00
60240;BME280;46102;39.012;-7.064;2023-09-18T04:10:56;98470.97;;;17.43;100.00
60240;BME280;46102;39.012;-7.064;2023-09-18T04:12:58;98476.56;;;17.47;100.00
60240;BME280;46102;39.012;-7.064;2023-09-18T04:14:59;98467.88;;;17.48;100.00
60240;BME280;46102;39.012;-7.064;2023-09-18T04:17:00;98467.53;;;17.50;100.00
60240;BME280;46102;39.012;-7.064;2023-09-18T04:19:03;98465.91;;;17.49;99.82
60240;BME280;46102;39.012;-7.064;2023-09-18T04:21:04;98462.34;;;17.48;99.61
60240;BME280;46102;39.012;-7.064;2023-09-18T04:23:23;98468.69;;;17.49;99.10
60240;BME280;46102;39.012;-7.064;2023-09-18T04:25:25;98464.81;;;17.54;98.64
60240;BME280;46102;39.012;-7.064;2023-09-18T04:27:26;98458.91;;;17.55;98.18
60240;BME280;46102;39.012;-7.064;2023-09-18T04:29:27;98458.03;;;17.51;98.24
60240;BME280;46102;39.012;-7.064;2023-09-18T04:31:28;98454.09;;;17.52;97.83
60240;BME280;46102;39.012;-7.064;2023-09-18T04:33:29;98459.91;;;17.47;97.56
60240;BME280;46102;39.012;-7.064;2023-09-18T04:35:30;98459.22;;;17.50;97.06
60240;BME280;46102;39.012;-7.064;2023-09-18T04:37:38;98462.41;;;17.52;96.94
60240;BME280;46102;39.012;-7.064;2023-09-18T04:39:42;98463.31;;;17.56;96.67
60240;BME280;46102;39.012;-7.064;2023-09-18T04:41:42;98466.06;;;17.56;96.03
60240;BME280;46102;39.012;-7.064;2023-09-18T04:43:43;98464.88;;;17.57;95.67
60240;BME280;46102;39.012;-7.064;2023-09-18T04:45:45;98462.56;;;17.59;95.44
60240;BME280;46102;39.012;-7.064;2023-09-18T04:47:47;98464.53;;;17.59;94.86
60240;BME280;46102;39.012;-7.064;2023-09-18T04:49:48;98464.09;;;17.57;94.58
60240;BME280;46102;39.012;-7.064;2023-09-18T04:51:51;98468.75;;;17.53;94.40
60240;BME280;46102;39.012;-7.064;2023-09-18T04:53:52;98465.63;;;17.54;94.19
60240;BME280;46102;39.012;-7.064;2023-09-18T04:55:52;98475.09;;;17.53;94.14
60240;BME280;46102;39.012;-7.064;2023-09-18T04:57:53;98476.34;;;17.56;93.75
60240;BME280;46102;39.012;-7.064;2023-09-18T04:59:54;98475.53;;;17.55;93.62
60240;BME280;46102;39.012;-7.064;2023-09-18T05:01:56;98480.00;;;17.60;93.58
60240;BME280;46102;39.012;-7.064;2023-09-18T05:03:56;98480.44;;;17.62;93.11
60240;BME280;46102;39.012;-7.064;2023-09-18T05:05:57;98482.78;;;17.60;92.90
60240;BME280;46102;39.012;-7.064;2023-09-18T05:07:58;98482.97;;;17.51;92.90
60240;BME280;46102;39.012;-7.064;2023-09-18T05:09:59;98481.44;;;17.54;92.72
60240;BME280;46102;39.012;-7.064;2023-09-18T05:11:59;98490.22;;;17.56;92.49
60240;BME280;46102;39.012;-7.064;2023-09-18T05:14:00;98481.75;;;17.48;93.22
60240;BME280;46102;39.012;-7.064;2023-09-18T05:16:01;98493.06;;;17.40;93.97
60240;BME280;46102;39.012;-7.064;2023-09-18T05:18:04;98496.56;;;17.37;94.34
60240;BME280;46102;39.012;-7.064;2023-09-18T05:20:05;98496.69;;;17.24;95.70
60240;BME280;46102;39.012;-7.064;2023-09-18T05:22:08;98506.09;;;17.20;96.70
60240;BME280;46102;39.012;-7.064;2023-09-18T05:24:10;98509.16;;;17.15;97.37
60240;BME280;46102;39.012;-7.064;2023-09-18T05:26:11;98500.94;;;17.18;97.01
60240;BME280;46102;39.012;-7.064;2023-09-18T05:28:12;98506.38;;;17.15;97.36
60240;BME280;46102;39.012;-7.064;2023-09-18T05:30:15;98509.06;;;17.11;97.62
60240;BME280;46102;39.012;-7.064;2023-09-18T05:32:16;98510.88;;;17.03;98.38
60240;BME280;46102;39.012;-7.064;2023-09-18T05:34:17;98510.44;;;17.01;98.61
60240;BME280;46102;39.012;-7.064;2023-09-18T05:36:18;98506.50;;;17.02;98.51
60240;BME280;46102;39.012;-7.064;2023-09-18T05:38:19;98509.72;;;17.04;98.48
60240;BME280;46102;39.012;-7.064;2023-09-18T05:40:19;98509.19;;;16.99;99.09
60240;BME280;46102;39.012;-7.064;2023-09-18T05:42:20;98506.88;;;17.01;99.27
60240;BME280;46102;39.012;-7.064;2023-09-18T05:44:22;98505.34;;;17.03;99.42
60240;BME280;46102;39.012;-7.064;2023-09-18T05:46:22;98512.84;;;17.03;99.56
60240;BME280;46102;39.012;-7.064;2023-09-18T05:48:23;98521.16;;;17.03;99.47
60240;BME280;46102;39.012;-7.064;2023-09-18T05:50:24;98520.47;;;16.90;100.00
60240;BME280;46102;39.012;-7.064;2023-09-18T05:52:28;98519.66;;;16.90;100.00
60240;BME280;46102;39.012;-7.064;2023-09-18T05:54:28;98517.44;;;16.79;100.00
60240;BME280;46102;39.012;-7.064;2023-09-18T05:56:29;98519.13;;;16.84;100.00
60240;BME280;46102;39.012;-7.064;2023-09-18T05:58:32;98526.34;;;16.89;100.00
60240;BME280;46102;39.012;-7.064;2023-09-18T06:00:33;98530.19;;;16.84;100.00
60240;BME280;46102;39.012;-7.064;2023-09-18T06:02:34;98531.38;;;16.83;100.00
60240;BME280;46102;39.012;-7.064;2023-09-18T06:04:35;98530.44;;;16.79;100.00
60240;BME280;46102;39.012;-7.064;2023-09-18T06:06:37;98529.22;;;16.76;100.00
60240;BME280;46102;39.012;-7.064;2023-09-18T06:08:38;98529.34;;;16.80;100.00
60240;BME280;46102;39.012;-7.064;2023-09-18T06:10:38;98526.88;;;16.78;100.00
60240;BME280;46102;39.012;-7.064;2023-09-18T06:12:39;98532.44;;;16.78;100.00
60240;BME280;46102;39.012;-7.064;2023-09-18T06:14:40;98537.97;;;16.78;100.00
60240;BME280;46102;39.012;-7.064;2023-09-18T06:16:41;98536.91;;;16.83;100.00
60240;BME280;46102;39.012;-7.064;2023-09-18T06:18:42;98546.28;;;16.78;100.00
60240;BME280;46102;39.012;-7.064;2023-09-18T06:20:44;98545.13;;;16.79;100.00
60240;BME280;46102;39.012;-7.064;2023-09-18T06:22:46;98548.53;;;16.89;100.00
60240;BME280;46102;39.012;-7.064;2023-09-18T06:24:47;98555.84;;;16.97;100.00
60240;BME280;46102;39.012;-7.064;2023-09-18T06:26:47;98553.63;;;17.02;100.00
60240;BME280;46102;39.012;-7.064;2023-09-18T06:28:48;98561.31;;;17.09;100.00
60240;BME280;46102;39.012;-7.064;2023-09-18T06:30:49;98566.09;;;17.12;100.00
60240;BME280;46102;39.012;-7.064;2023-09-18T06:32:50;98568.53;;;17.14;100.00
60240;BME280;46102;39.012;-7.064;2023-09-18T06:34:50;98569.38;;;17.18;100.00
60240;BME280;46102;39.012;-7.064;2023-09-18T06:36:52;98566.38;;;17.23;100.00
60240;BME280;46102;39.012;-7.064;2023-09-18T06:38:53;98567.97;;;17.24;99.99
60240;BME280;46102;39.012;-7.064;2023-09-18T06:40:53;98576.63;;;17.22;99.80
60240;BME280;46102;39.012;-7.064;2023-09-18T06:42:59;98586.47;;;17.20;99.72
60240;BME280;46102;39.012;-7.064;2023-09-18T06:45:00;98580.13;;;17.19;100.00
60240;BME280;46102;39.012;-7.064;2023-09-18T06:47:01;98584.53;;;17.20;100.00
60240;BME280;46102;39.012;-7.064;2023-09-18T06:49:02;98590.06;;;17.20;99.87
60240;BME280;46102;39.012;-7.064;2023-09-18T06:51:04;98590.41;;;17.19;100.00
60240;BME280;46102;39.012;-7.064;2023-09-18T06:53:04;98596.13;;;17.26;100.00
60240;BME280;46102;39.012;-7.064;2023-09-18T06:55:05;98604.34;;;17.38;99.72
60240;BME280;46102;39.012;-7.064;2023-09-18T06:57:06;98610.03;;;17.45;99.01
60240;BME280;46102;39.012;-7.064;2023-09-18T06:59:07;98606.97;;;17.51;98.54
60240;BME280;46102;39.012;-7.064;2023-09-18T07:01:07;98613.78;;;17.53;98.02
60240;BME280;46102;39.012;-7.064;2023-09-18T07:03:09;98615.00;;;17.56;97.55
60240;BME280;46102;39.012;-7.064;2023-09-18T07:05:11;98614.22;;;17.55;97.21
60240;BME280;46102;39.012;-7.064;2023-09-18T07:07:14;98619.75;;;17.55;97.15
60240;BME280;46102;39.012;-7.064;2023-09-18T07:09:15;98631.66;;;17.56;96.92
60240;BME280;46102;39.012;-7.064;2023-09-18T07:11:17;98624.88;;;17.53;96.85
60240;BME280;46102;39.012;-7.064;2023-09-18T07:13:17;98625.66;;;17.54;96.66
60240;BME280;46102;39.012;-7.064;2023-09-18T07:15:18;98630.41;;;17.53;96.68
60240;BME280;46102;39.012;-7.064;2023-09-18T07:17:19;98634.44;;;17.56;97.00
60240;BME280;46102;39.012;-7.064;2023-09-18T07:19:20;98638.88;;;17.60;96.84
60240;BME280;46102;39.012;-7.064;2023-09-18T07:21:21;98634.97;;;17.61;96.63
60240;BME280;46102;39.012;-7.064;2023-09-18T07:23:21;98638.53;;;17.62;96.06
60240;BME280;46102;39.012;-7.064;2023-09-18T07:25:22;98638.19;;;17.63;95.94
60240;BME280;46102;39.012;-7.064;2023-09-18T07:27:23;98644.19;;;17.65;95.90
60240;BME280;46102;39.012;-7.064;2023-09-18T07:29:24;98652.94;;;17.67;95.69
60240;BME280;46102;39.012;-7.064;2023-09-18T07:31:27;98657.75;;;17.71;95.17
60240;BME280;46102;39.012;-7.064;2023-09-18T07:33:28;98658.03;;;17.81;95.00
60240;BME280;46102;39.012;-7.064;2023-09-18T07:35:29;98656.34;;;17.96;94.74
60240;BME280;46102;39.012;-7.064;2023-09-18T07:37:30;98656.72;;;18.14;93.65
60240;BME280;46102;39.012;-7.064;2023-09-18T07:39:31;98658.97;;;18.28;92.46
60240;BME280;46102;39.012;-7.064;2023-09-18T07:41:32;98657.22;;;18.39;91.59
60240;BME280;46102;39.012;-7.064;2023-09-18T07:43:33;98665.41;;;18.51;90.79
60240;BME280;46102;39.012;-7.064;2023-09-18T07:45:38;98667.28;;;18.67;89.89
60240;BME280;46102;39.012;-7.064;2023-09-18T07:47:39;98677.22;;;18.87;88.86
60240;BME280;46102;39.012;-7.064;2023-09-18T07:49:40;98679.50;;;19.05;87.31
60240;BME280;46102;39.012;-7.064;2023-09-18T07:51:40;98671.06;;;19.21;85.76
60240;BME280;46102;39.012;-7.064;2023-09-18T07:53:42;98678.00;;;19.34;84.31
60240;BME280;46102;39.012;-7.064;2023-09-18T07:55:43;98683.00;;;19.48;83.53
60240;BME280;46102;39.012;-7.064;2023-09-18T07:57:44;98684.41;;;19.61;82.73
60240;BME280;46102;39.012;-7.064;2023-09-18T07:59:46;98688.28;;;19.80;81.44
60240;BME280;46102;39.012;-7.064;2023-09-18T08:01:46;98689.66;;;19.93;80.10
60240;BME280;46102;39.012;-7.064;2023-09-18T08:03:48;98695.84;;;20.09;79.21
60240;BME280;46102;39.012;-7.064;2023-09-18T08:05:52;98690.44;;;20.20;78.35
60240;BME280;46102;39.012;-7.064;2023-09-18T08:07:54;98697.66;;;20.28;77.31
60240;BME280;46102;39.012;-7.064;2023-09-18T08:09:57;98700.16;;;20.33;76.65
60240;BME280;46102;39.012;-7.064;2023-09-18T08:11:58;98699.38;;;20.36;76.00
60240;BME280;46102;39.012;-7.064;2023-09-18T08:13:59;98690.72;;;20.45;75.83
60240;BME280;46102;39.012;-7.064;2023-09-18T08:15:59;98700.84;;;20.57;74.96
60240;BME280;46102;39.012;-7.064;2023-09-18T08:18:00;98704.63;;;20.75;74.06
60240;BME280;46102;39.012;-7.064;2023-09-18T08:20:01;98702.75;;;20.87;73.44
60240;BME280;46102;39.012;-7.064;2023-09-18T08:22:02;98704.09;;;21.00;72.75
60240;BME280;46102;39.012;-7.064;2023-09-18T08:24:04;98698.97;;;21.06;71.92
60240;BME280;46102;39.012;-7.064;2023-09-18T08:26:05;98707.34;;;21.09;71.32
60240;BME280;46102;39.012;-7.064;2023-09-18T08:28:08;98698.56;;;21.07;71.62
60240;BME280;46102;39.012;-7.064;2023-09-18T08:30:10;98706.88;;;21.00;71.10
60240;BME280;46102;39.012;-7.064;2023-09-18T08:32:11;98708.41;;;20.94;71.58
60240;BME280;46102;39.012;-7.064;2023-09-18T08:34:12;98710.38;;;20.90;71.15
60240;BME280;46102;39.012;-7.064;2023-09-18T08:36:13;98722.31;;;20.90;70.07
60240;BME280;46102;39.012;-7.064;2023-09-18T08:38:16;98729.91;;;20.93;69.95
60240;BME280;46102;39.012;-7.064;2023-09-18T08:40:16;98717.16;;;20.92;69.60
60240;BME280;46102;39.012;-7.064;2023-09-18T08:42:18;98721.16;;;20.95;69.46
60240;BME280;46102;39.012;-7.064;2023-09-18T08:44:23;98719.56;;;20.94;68.53
60240;BME280;46102;39.012;-7.064;2023-09-18T08:46:27;98719.97;;;20.96;68.24
60240;BME280;46102;39.012;-7.064;2023-09-18T08:48:29;98729.16;;;20.96;68.67
60240;BME280;46102;39.012;-7.064;2023-09-18T08:50:38;98735.13;;;20.95;67.67
60240;BME280;46102;39.012;-7.064;2023-09-18T08:52:39;98732.28;;;20.91;68.40
60240;BME280;46102;39.012;-7.064;2023-09-18T08:54:43;98733.47;;;20.90;68.72
60240;BME280;46102;39.012;-7.064;2023-09-18T08:56:44;98737.06;;;20.91;68.93
60240;BME280;46102;39.012;-7.064;2023-09-18T08:58:45;98733.41;;;20.87;68.19
60240;BME280;46102;39.012;-7.064;2023-09-18T09:00:47;98738.56;;;20.81;67.87
60240;BME280;46102;39.012;-7.064;2023-09-18T09:02:47;98738.16;;;20.83;67.82
60240;BME280;46102;39.012;-7.064;2023-09-18T09:04:51;98749.34;;;20.86;67.63
60240;BME280;46102;39.012;-7.064;2023-09-18T09:06:52;98746.19;;;20.88;67.61
60240;BME280;46102;39.012;-7.064;2023-09-18T09:08:53;98750.94;;;20.87;67.50
60240;BME280;46102;39.012;-7.064;2023-09-18T09:10:54;98756.94;;;20.89;67.46
60240;BME280;46102;39.012;-7.064;2023-09-18T09:12:59;98760.09;;;20.84;67.81
60240;BME280;46102;39.012;-7.064;2023-09-18T09:15:04;98760.09;;;20.84;68.01
60240;BME280;46102;39.012;-7.064;2023-09-18T09:17:05;98763.25;;;20.83;67.99
60240;BME280;46102;39.012;-7.064;2023-09-18T09:19:06;98759.72;;;20.86;68.15
60240;BME280;46102;39.012;-7.064;2023-09-18T09:21:08;98765.72;;;20.88;68.09
60240;BME280;46102;39.012;-7.064;2023-09-18T09:23:09;98767.78;;;20.94;67.33
60240;BME280;46102;39.012;-7.064;2023-09-18T09:25:31;98767.88;;;21.05;67.20
60240;BME280;46102;39.012;-7.064;2023-09-18T09:27:42;98765.25;;;21.19;66.85
60240;BME280;46102;39.012;-7.064;2023-09-18T09:29:55;98765.31;;;21.27;65.93
60240;BME280;46102;39.012;-7.064;2023-09-18T09:34:26;98769.16;;;21.52;64.75
60240;BME280;46102;39.012;-7.064;2023-09-18T09:36:30;98772.47;;;21.65;63.83
60240;BME280;46102;39.012;-7.064;2023-09-18T09:38:33;98783.34;;;21.81;63.73
60240;BME280;46102;39.012;-7.064;2023-09-18T09:40:34;98788.25;;;21.95;63.31
60240;BME280;46102;39.012;-7.064;2023-09-18T09:42:40;98783.94;;;22.04;62.96
60240;BME280;46102;39.012;-7.064;2023-09-18T09:44:41;98786.38;;;22.13;62.39
60240;BME280;46102;39.012;-7.064;2023-09-18T09:46:46;98784.88;;;22.27;62.00
60240;BME280;46102;39.012;-7.064;2023-09-18T09:49:06;98787.00;;;22.44;60.87
60240;BME280;46102;39.012;-7.064;2023-09-18T09:51:06;98789.91;;;22.65;59.91
60240;BME280;46102;39.012;-7.064;2023-09-18T09:53:07;98788.78;;;22.92;59.23
60240;BME280;46102;39.012;-7.064;2023-09-18T09:55:24;98800.09;;;23.20;57.13
60240;BME280;46102;39.012;-7.064;2023-09-18T09:57:25;98793.38;;;23.54;55.78
60240;BME280;46102;39.012;-7.064;2023-09-18T09:59:26;98784.59;;;23.77;55.26
60240;BME280;46102;39.012;-7.064;2023-09-18T10:01:30;98786.19;;;23.92;54.17
60240;BME280;46102;39.012;-7.064;2023-09-18T10:03:33;98786.56;;;23.98;53.96
60240;BME280;46102;39.012;-7.064;2023-09-18T10:05:39;98789.38;;;23.98;53.58
60240;BME280;46102;39.012;-7.064;2023-09-18T10:07:40;98795.41;;;23.85;53.52
60240;BME280;46102;39.012;-7.064;2023-09-18T10:09:41;98798.22;;;23.78;53.54
60240;BME280;46102;39.012;-7.064;2023-09-18T10:11:49;98793.00;;;23.80;53.61
60240;BME280;46102;39.012;-7.064;2023-09-18T10:14:07;98793.41;;;23.82;52.45
60240;BME280;46102;39.012;-7.064;2023-09-18T10:16:11;98797.41;;;23.85;52.79
60240;BME280;46102;39.012;-7.064;2023-09-18T10:18:44;98795.81;;;23.80;52.30
60240;BME280;46102;39.012;-7.064;2023-09-18T10:20:51;98794.16;;;23.72;52.45
60240;BME280;46102;39.012;-7.064;2023-09-18T10:22:59;98790.56;;;23.61;51.99
60240;BME280;46102;39.012;-7.064;2023-09-18T10:25:14;98791.75;;;23.53;51.88
60240;BME280;46102;39.012;-7.064;2023-09-18T10:27:18;98795.75;;;23.44;51.65
60240;BME280;46102;39.012;-7.064;2023-09-18T10:29:22;98796.13;;;23.39;51.85
60240;BME280;46102;39.012;-7.064;2023-09-18T10:31:26;98802.53;;;23.36;51.33
60240;BME280;46102;39.012;-7.064;2023-09-18T10:33:28;98792.13;;;23.33;51.34
60240;BME280;46102;39.012;-7.064;2023-09-18T10:35:29;98790.94;;;23.31;51.45
60240;BME280;46102;39.012;-7.064;2023-09-18T10:37:30;98796.13;;;23.28;51.50